Terminal Aerodrome Forecast
Issued by NWS

Current Version | Previous Version | Graphics & Text | Print | Product List | Glossary On
Versions: 1 2 3 4 5 6 7 8 9 10 11 12 13 14 15 16 17 18 19 20 21 22 23 24 25 26 27 28 29 30 31 32 33 34
000
FTUS41 KRNK 191127
TAFLWB
TAF
KLWB 191127Z 1912/2012 25007KT P6SM BKN020 OVC060
     FM191500 28005KT P6SM SCT035
     FM200900 00000KT P6SM BKN015 OVC080=

USA.gov is the U.S. government's official web portal to all federal, state and local government web resources and services.